Airfield :
LOGIN :

Register | Disclaimer

   EN    FR    IT 

 










Legend :    VFR   Marginal VFR   IFR   Intensive IFR   Very Intensive IFR
Visi :
Ceiling :
>= 8 km
>= 3000ft
5 to 8 km
1000 to 3000 ft
1500m to 5 km
500 to 1000 ft
800 to 1500m
200 to 500 ft
< 800m
< 200 ft
Symbols :   Thunderstorms  Fog  Heavy snow  Heavy precipitations  Wind > 20 kt
SIGMETs :     Misc.  Thunderstorms  Icing  Turbulence  Mountain Waves  Volcanic Ashes






- Airport Elevation : 468 ft
- IATA code : GRO


LEGE - Girona Costa Brava

CURRENT METAR :
  • 070730Z VRB02KT 9999 FEW080 21/18 Q1021

EXPIRED METARs :
  • 070700Z VRB02KT 9999 FEW080 20/18 Q1020
  • 070630Z 00000KT CAVOK 19/17 Q1020
  • 070600Z VRB02KT CAVOK 18/17 Q1020
  • 070530Z 00000KT CAVOK 18/17 Q1020
  • 070500Z 00000KT CAVOK 17/17 Q1020

TAF TAF LEGE
Valid from the 07 at 06:00 until the 08 at 06:00 UTC


070500Z 0706/0806 VRB03KT 9999 FEW060 TX36/0714Z TN19/0706Z
BECMG 0711/0713 16010KT
PROB30
TEMPO 0714/0718 05010KT
BECMG 0718/0720 VRB04KT



MET'MAP, your aeronautical weather chart ! - Copyright ORBIFLY December 2007 - Disclaimer

ORBIFLY MET'MAP TEAM :

Programming & Development : Alexandra Zaïnal
Original concept : Baudouin d'Aumeries
Technical & hardware support : Manuel Goepfert
Assistance : Marc-Olivier Méhu




SOURCES & CREDITS :

   NOAA